createdAt,value
2018-07-19T00:00:24.339Z,18.91
2018-07-19T00:01:24.338Z,18.87
2018-07-19T00:02:24.332Z,18.87
2018-07-19T00:03:24.331Z,18.84
2018-07-19T00:04:24.338Z,18.84
2018-07-19T00:05:24.334Z,18.71
2018-07-19T00:06:24.329Z,18.76
2018-07-19T00:07:24.327Z,18.74
2018-07-19T00:08:24.327Z,18.71
2018-07-19T00:09:24.324Z,18.68
2018-07-19T00:10:24.329Z,18.57
2018-07-19T00:11:24.326Z,18.57
2018-07-19T00:12:24.327Z,18.50
2018-07-19T00:13:24.324Z,18.54
2018-07-19T00:14:24.322Z,18.42
2018-07-19T00:15:24.318Z,18.34
2018-07-19T00:16:24.317Z,18.34
2018-07-19T00:17:24.316Z,18.29
2018-07-19T00:18:24.320Z,18.34
2018-07-19T00:19:24.318Z,18.26
2018-07-19T00:20:24.316Z,18.23
2018-07-19T00:21:24.313Z,18.11
2018-07-19T00:22:24.315Z,18.14
2018-07-19T00:23:24.315Z,18.10
2018-07-19T00:24:24.320Z,18.10
2018-07-19T00:25:24.310Z,18.09
2018-07-19T00:26:24.305Z,18.09
2018-07-19T00:27:24.305Z,18.05
2018-07-19T00:28:24.304Z,18.02
2018-07-19T00:29:24.300Z,18.04
2018-07-19T00:30:24.312Z,17.99
2018-07-19T00:31:24.304Z,18.01
2018-07-19T00:32:24.302Z,18.01
2018-07-19T00:33:24.305Z,18.04
2018-07-19T00:34:24.294Z,18.05
2018-07-19T00:35:24.293Z,18.13
2018-07-19T00:36:24.297Z,18.10
2018-07-19T00:37:24.294Z,18.09
2018-07-19T00:38:24.289Z,18.09
2018-07-19T00:39:24.288Z,18.04
2018-07-19T00:40:24.289Z,18.10
2018-07-19T00:41:24.286Z,18.04
2018-07-19T00:42:24.289Z,18.04
2018-07-19T00:43:24.289Z,17.95
2018-07-19T00:44:24.287Z,17.99
2018-07-19T00:45:24.286Z,18.02
2018-07-19T00:46:24.283Z,17.96
2018-07-19T00:47:24.278Z,17.96
2018-07-19T00:48:24.277Z,17.95
2018-07-19T00:49:24.273Z,17.92
2018-07-19T00:50:24.277Z,17.87
2018-07-19T00:51:24.277Z,17.84
2018-07-19T00:52:24.272Z,17.87
2018-07-19T00:53:24.267Z,17.92
2018-07-19T00:54:24.271Z,17.91
2018-07-19T00:55:24.269Z,17.94
2018-07-19T00:56:24.269Z,17.95
2018-07-19T00:57:24.266Z,17.94
2018-07-19T00:58:24.261Z,18.04
2018-07-19T00:59:24.258Z,18.11
2018-07-19T01:00:24.258Z,18.13
2018-07-19T01:01:24.254Z,18.10
2018-07-19T01:02:24.259Z,18.09
2018-07-19T01:03:24.257Z,18.10
2018-07-19T01:04:24.255Z,18.16
2018-07-19T01:05:24.253Z,18.11
2018-07-19T01:06:24.247Z,18.01
2018-07-19T01:07:24.245Z,18.10
2018-07-19T01:08:24.248Z,18.09
2018-07-19T01:09:24.246Z,18.09
2018-07-19T01:10:24.240Z,18.11
2018-07-19T01:11:24.240Z,18.07
2018-07-19T01:12:24.239Z,17.95
2018-07-19T01:13:24.237Z,17.92
2018-07-19T01:14:24.241Z,17.84
2018-07-19T01:15:24.237Z,17.81
2018-07-19T01:16:24.235Z,17.76
2018-07-19T01:17:24.236Z,17.74
2018-07-19T01:18:24.227Z,17.76
2018-07-19T01:19:24.227Z,17.70
2018-07-19T01:20:24.225Z,17.68
2018-07-19T01:21:24.221Z,17.73
2018-07-19T01:22:24.229Z,17.81
2018-07-19T01:23:24.223Z,17.73
2018-07-19T01:24:24.221Z,17.81
2018-07-19T01:25:24.216Z,17.77
2018-07-19T01:26:24.218Z,17.71
2018-07-19T01:27:24.217Z,17.77
2018-07-19T01:28:24.218Z,17.65
2018-07-19T01:29:24.213Z,17.60
2018-07-19T01:30:24.206Z,17.55
2018-07-19T01:31:24.205Z,17.53
2018-07-19T01:32:24.208Z,17.55
2018-07-19T01:33:24.204Z,17.65
2018-07-19T01:34:24.200Z,17.68
2018-07-19T01:35:24.199Z,17.60
2018-07-19T01:36:24.196Z,17.65
2018-07-19T01:37:24.193Z,17.76
2018-07-19T01:38:24.199Z,17.80
2018-07-19T01:39:24.196Z,17.71
2018-07-19T01:40:24.192Z,17.74
2018-07-19T01:41:24.187Z,17.80
2018-07-19T01:42:24.190Z,17.83
2018-07-19T01:43:24.189Z,17.79
2018-07-19T01:44:24.186Z,17.80
2018-07-19T01:45:24.184Z,17.80
2018-07-19T01:46:24.181Z,17.81
2018-07-19T01:47:24.175Z,17.73
2018-07-19T01:48:24.174Z,17.65
2018-07-19T01:49:24.172Z,17.60
2018-07-19T01:50:24.176Z,17.58
2018-07-19T01:51:24.172Z,17.66
2018-07-19T01:52:24.173Z,17.49
2018-07-19T01:53:24.169Z,17.58
2018-07-19T01:54:24.162Z,17.57
2018-07-19T01:55:24.160Z,17.55
2018-07-19T01:56:24.164Z,17.57
2018-07-19T01:57:24.162Z,17.54
2018-07-19T01:58:24.155Z,17.63
2018-07-19T01:59:24.155Z,17.62
2018-07-19T02:00:24.156Z,17.55
2018-07-19T02:01:24.152Z,17.62
2018-07-19T02:02:24.157Z,17.55
2018-07-19T02:03:24.195Z,17.47
2018-07-19T02:04:24.152Z,17.47
2018-07-19T02:05:24.151Z,17.55
2018-07-19T02:06:24.140Z,17.45
2018-07-19T02:07:24.140Z,17.45
2018-07-19T02:08:24.137Z,17.36
2018-07-19T02:09:24.134Z,17.30
2018-07-19T02:10:24.138Z,17.35
2018-07-19T02:11:24.136Z,17.25
2018-07-19T02:12:24.129Z,17.27
2018-07-19T02:13:24.126Z,17.24
2018-07-19T02:14:24.131Z,17.28
2018-07-19T02:15:24.129Z,17.27
2018-07-19T02:16:24.127Z,17.22
2018-07-19T02:17:24.122Z,17.36
2018-07-19T02:18:24.118Z,17.42
2018-07-19T02:19:24.116Z,17.39
2018-07-19T02:20:24.114Z,17.46
2018-07-19T02:21:24.110Z,17.53
2018-07-19T02:22:24.114Z,17.62
2018-07-19T02:23:24.111Z,17.57
2018-07-19T02:24:24.111Z,17.55
2018-07-19T02:25:24.107Z,17.57
2018-07-19T02:26:24.100Z,17.55
2018-07-19T02:27:24.099Z,17.62
2018-07-19T02:28:24.103Z,17.55
2018-07-19T02:29:24.101Z,17.60
2018-07-19T02:30:24.096Z,17.60
2018-07-19T02:31:24.091Z,17.70
2018-07-19T02:32:24.089Z,17.83
2018-07-19T02:33:24.087Z,17.87
2018-07-19T02:34:24.088Z,17.95
2018-07-19T02:35:24.087Z,17.99
2018-07-19T02:36:24.085Z,17.96
2018-07-19T02:37:24.082Z,17.98
2018-07-19T02:38:24.077Z,18.01
2018-07-19T02:39:24.075Z,17.99
2018-07-19T02:40:24.073Z,18.02
2018-07-19T02:41:24.070Z,17.98
2018-07-19T02:42:24.071Z,17.94
2018-07-19T02:43:24.069Z,17.92
2018-07-19T02:44:24.063Z,18.02
2018-07-19T02:45:24.060Z,17.92
2018-07-19T02:46:24.063Z,18.04
2018-07-19T02:47:24.061Z,18.04
2018-07-19T02:48:24.060Z,18.05
2018-07-19T02:49:24.057Z,18.07
2018-07-19T02:50:24.050Z,18.04
2018-07-19T02:51:24.048Z,18.17
2018-07-19T02:52:24.048Z,18.13
2018-07-19T02:53:24.047Z,18.19
2018-07-19T02:54:24.049Z,18.21
2018-07-19T02:55:24.046Z,18.34
2018-07-19T02:56:24.043Z,18.35
2018-07-19T02:57:24.040Z,18.51
2018-07-19T02:58:24.034Z,18.49
2018-07-19T02:59:24.032Z,18.47
2018-07-19T03:00:24.036Z,18.50
2018-07-19T03:01:24.032Z,18.57
2018-07-19T03:02:24.029Z,18.46
2018-07-19T03:03:24.025Z,18.42
2018-07-19T03:04:24.024Z,18.38
2018-07-19T03:05:24.020Z,18.31
2018-07-19T03:06:24.041Z,18.19
2018-07-19T03:07:24.021Z,18.11
2018-07-19T03:08:24.021Z,18.02
2018-07-19T03:09:24.018Z,17.96
2018-07-19T03:10:24.011Z,17.96
2018-07-19T03:11:24.009Z,17.80
2018-07-19T03:12:24.007Z,17.79
2018-07-19T03:13:24.005Z,17.79
2018-07-19T03:14:24.008Z,17.81
2018-07-19T03:15:24.008Z,17.70
2018-07-19T03:16:23.999Z,17.60
2018-07-19T03:17:23.997Z,17.58
2018-07-19T03:18:23.998Z,17.51
2018-07-19T03:19:23.997Z,17.54
2018-07-19T03:20:23.996Z,17.46
2018-07-19T03:21:23.993Z,17.45
2018-07-19T03:22:23.986Z,17.43
2018-07-19T03:23:23.984Z,17.36
2018-07-19T03:24:23.983Z,17.39
2018-07-19T03:25:23.980Z,17.40
2018-07-19T03:26:23.983Z,17.33
2018-07-19T03:27:23.981Z,17.22
2018-07-19T03:28:23.980Z,17.21
2018-07-19T03:29:23.975Z,17.20
2018-07-19T03:30:23.973Z,17.24
2018-07-19T03:31:23.982Z,17.17
2018-07-19T03:32:23.971Z,17.09
2018-07-19T03:33:23.967Z,17.07
2018-07-19T03:34:23.965Z,17.10
2018-07-19T03:35:23.959Z,17.15
2018-07-19T03:36:23.957Z,17.07
2018-07-19T03:37:23.954Z,17.05
2018-07-19T03:38:23.957Z,17.05
2018-07-19T03:39:23.956Z,17.03
2018-07-19T03:40:23.952Z,16.91
2018-07-19T03:41:23.949Z,16.92
2018-07-19T03:42:23.943Z,17.03
2018-07-19T03:43:23.942Z,17.07
2018-07-19T03:44:23.940Z,17.05
2018-07-19T03:45:23.936Z,17.00
2018-07-19T03:46:23.940Z,17.02
2018-07-19T03:47:23.937Z,16.99
2018-07-19T03:48:23.931Z,16.98
2018-07-19T03:49:23.928Z,16.99
2018-07-19T03:50:23.932Z,16.95
2018-07-19T03:51:23.929Z,16.95
2018-07-19T03:52:23.925Z,16.87
2018-07-19T03:53:23.922Z,16.85
2018-07-19T03:54:23.918Z,16.77
2018-07-19T03:55:23.915Z,16.82
2018-07-19T03:56:23.913Z,16.75
2018-07-19T03:57:23.909Z,16.73
2018-07-19T03:58:23.911Z,16.81
2018-07-19T03:59:23.909Z,16.75
2018-07-19T04:00:23.908Z,16.75
2018-07-19T04:01:23.905Z,16.91
2018-07-19T04:02:23.901Z,16.91
2018-07-19T04:03:23.895Z,16.96
2018-07-19T04:04:23.899Z,16.95
2018-07-19T04:05:23.895Z,16.91
2018-07-19T04:06:23.889Z,17.00
2018-07-19T04:07:23.887Z,17.07
2018-07-19T04:08:23.884Z,17.05
2018-07-19T04:09:23.880Z,17.07
2018-07-19T04:10:23.884Z,17.15
2018-07-19T04:11:23.881Z,17.14
2018-07-19T04:12:23.879Z,17.25
2018-07-19T04:13:23.874Z,17.17
2018-07-19T04:14:23.869Z,17.20
2018-07-19T04:15:23.866Z,17.22
2018-07-19T04:16:23.866Z,17.22
2018-07-19T04:17:23.862Z,17.30
2018-07-19T04:18:23.865Z,17.22
2018-07-19T04:19:23.865Z,17.32
2018-07-19T04:20:23.857Z,17.42
2018-07-19T04:21:23.852Z,17.33
2018-07-19T04:22:23.855Z,17.40
2018-07-19T04:23:23.854Z,17.46
2018-07-19T04:24:23.854Z,17.38
2018-07-19T04:25:23.849Z,17.38
2018-07-19T04:26:23.841Z,17.46
2018-07-19T04:27:23.839Z,17.49
2018-07-19T04:28:23.838Z,17.47
2018-07-19T04:29:23.834Z,17.51
2018-07-19T04:30:23.837Z,17.54
2018-07-19T04:31:23.834Z,17.57
2018-07-19T04:32:23.836Z,17.54
2018-07-19T04:33:23.833Z,17.58
2018-07-19T04:34:23.825Z,17.60
2018-07-19T04:35:23.821Z,17.62
2018-07-19T04:36:23.825Z,17.76
2018-07-19T04:37:23.823Z,17.79
2018-07-19T04:38:23.819Z,17.79
2018-07-19T04:39:23.814Z,17.91
2018-07-19T04:40:23.812Z,17.91
2018-07-19T04:41:23.809Z,17.98
2018-07-19T04:42:23.812Z,17.99
2018-07-19T04:43:23.810Z,18.11
2018-07-19T04:44:23.810Z,18.16
2018-07-19T04:45:23.808Z,18.20
2018-07-19T04:46:23.800Z,18.21
2018-07-19T04:47:23.799Z,18.29
2018-07-19T04:48:23.821Z,18.36
2018-07-19T04:49:23.796Z,18.46
2018-07-19T04:50:23.797Z,18.51
2018-07-19T04:51:23.800Z,18.62
2018-07-19T04:52:23.791Z,18.66
2018-07-19T04:53:23.789Z,18.66
2018-07-19T04:54:23.792Z,18.78
2018-07-19T04:55:23.790Z,18.82
2018-07-19T04:56:23.790Z,18.99
2018-07-19T04:57:23.788Z,19.09
2018-07-19T04:58:23.783Z,19.28
2018-07-19T04:59:23.781Z,19.38
2018-07-19T05:00:23.781Z,19.49
2018-07-19T05:01:23.780Z,19.70
2018-07-19T05:02:23.783Z,19.80
2018-07-19T05:03:23.786Z,19.86
2018-07-19T05:04:23.782Z,20.08
2018-07-19T05:05:23.780Z,20.33
2018-07-19T05:06:23.777Z,20.41
2018-07-19T05:07:23.776Z,20.66
2018-07-19T05:08:23.781Z,20.82
2018-07-19T05:09:23.781Z,21.06
2018-07-19T05:10:23.776Z,21.27
2018-07-19T05:11:23.779Z,21.37
2018-07-19T05:12:23.779Z,21.42
2018-07-19T05:13:23.782Z,21.59
2018-07-19T05:14:23.785Z,21.59
2018-07-19T05:15:23.786Z,21.66
2018-07-19T05:16:23.788Z,21.68
2018-07-19T05:17:23.788Z,21.74
2018-07-19T05:18:23.785Z,21.91
2018-07-19T05:19:23.785Z,21.82
2018-07-19T05:20:23.786Z,21.94
2018-07-19T05:21:23.791Z,21.99
2018-07-19T05:22:23.793Z,22.01
2018-07-19T05:23:23.797Z,22.12
2018-07-19T05:24:23.793Z,22.17
2018-07-19T05:25:23.792Z,22.19
2018-07-19T05:26:23.798Z,22.14
2018-07-19T05:27:23.799Z,22.11
2018-07-19T05:28:23.803Z,22.17
2018-07-19T05:29:23.802Z,22.23
2018-07-19T05:30:23.800Z,22.23
2018-07-19T05:31:23.800Z,22.24
2018-07-19T05:32:23.803Z,22.20
2018-07-19T05:33:23.804Z,22.14
2018-07-19T05:34:23.810Z,22.12
2018-07-19T05:35:23.812Z,22.11
2018-07-19T05:36:23.811Z,22.06
2018-07-19T05:37:23.811Z,22.19
2018-07-19T05:38:23.810Z,22.14
2018-07-19T05:39:23.810Z,22.27
2018-07-19T05:40:23.846Z,22.27
2018-07-19T05:41:23.817Z,22.33
2018-07-19T05:42:23.845Z,22.35
2018-07-19T05:43:23.815Z,22.52
2018-07-19T05:44:23.818Z,22.56
2018-07-19T05:45:23.817Z,22.61
2018-07-19T05:46:23.825Z,22.64
2018-07-19T05:47:23.827Z,22.84
2018-07-19T05:48:23.828Z,22.79
2018-07-19T05:49:23.831Z,22.93
2018-07-19T05:50:23.825Z,23.16
2018-07-19T05:51:23.827Z,23.29
2018-07-19T05:52:23.829Z,23.49
2018-07-19T05:53:23.829Z,23.50
2018-07-19T05:54:23.836Z,23.59
2018-07-19T05:55:23.838Z,23.71
2018-07-19T05:56:23.836Z,23.87
2018-07-19T05:57:23.836Z,24.05
2018-07-19T05:58:23.843Z,24.06
2018-07-19T05:59:23.845Z,24.14
2018-07-19T06:00:23.850Z,24.21
2018-07-19T06:01:23.848Z,24.29
2018-07-19T06:02:23.846Z,24.30
2018-07-19T06:03:23.849Z,24.34
2018-07-19T06:04:23.851Z,24.31
2018-07-19T06:05:23.853Z,24.46
2018-07-19T06:06:23.861Z,24.48
2018-07-19T06:07:23.863Z,24.60
2018-07-19T06:08:23.866Z,24.60
2018-07-19T06:09:23.869Z,24.61
2018-07-19T06:10:23.865Z,24.71
2018-07-19T06:11:23.866Z,24.82
2018-07-19T06:12:23.874Z,24.93
2018-07-19T06:13:23.875Z,24.89
2018-07-19T06:14:23.873Z,24.90
2018-07-19T06:15:23.877Z,24.84
2018-07-19T06:16:23.880Z,24.49
2018-07-19T06:17:23.885Z,24.30
2018-07-19T06:18:23.890Z,24.29
2018-07-19T06:19:23.892Z,24.24
2018-07-19T06:20:23.896Z,23.99
2018-07-19T06:21:23.897Z,24.00
2018-07-19T06:22:23.896Z,23.56
2018-07-19T06:23:23.899Z,23.56
2018-07-19T06:24:23.903Z,23.56
2018-07-19T06:25:23.904Z,23.41
2018-07-19T06:26:23.912Z,23.37
2018-07-19T06:27:23.917Z,23.38
2018-07-19T06:28:23.925Z,23.39
2018-07-19T06:29:23.915Z,23.39
2018-07-19T06:30:23.924Z,23.42
2018-07-19T06:31:23.927Z,23.50
2018-07-19T06:32:23.930Z,23.54
2018-07-19T06:33:23.933Z,23.67
2018-07-19T06:34:23.930Z,23.81
2018-07-19T06:35:23.933Z,23.82
2018-07-19T06:36:23.936Z,23.59
2018-07-19T06:37:23.937Z,23.75
2018-07-19T06:38:23.945Z,23.87
2018-07-19T06:39:23.951Z,23.92
2018-07-19T06:40:23.951Z,23.96
2018-07-19T06:41:23.953Z,24.14
2018-07-19T06:42:23.952Z,24.14
2018-07-19T06:43:23.957Z,24.16
2018-07-19T06:44:23.966Z,24.18
2018-07-19T06:45:23.964Z,24.51
2018-07-19T06:46:23.963Z,24.94
2018-07-19T06:47:23.967Z,25.49
2018-07-19T06:48:23.970Z,25.83
2018-07-19T06:49:23.979Z,26.39
2018-07-19T06:50:23.984Z,26.38
2018-07-19T06:51:23.985Z,26.42
2018-07-19T06:52:23.990Z,27.01
2018-07-19T06:53:23.991Z,26.41
2018-07-19T06:54:23.992Z,26.27
2018-07-19T06:55:23.996Z,25.44
2018-07-19T06:56:24.000Z,25.31
2018-07-19T06:57:24.044Z,24.98
2018-07-19T06:58:24.014Z,24.92
2018-07-19T06:59:24.019Z,24.80
2018-07-19T07:00:24.019Z,24.64
2018-07-19T07:01:24.022Z,24.49
2018-07-19T07:02:24.034Z,24.34
2018-07-19T07:03:24.037Z,24.66
2018-07-19T07:04:24.042Z,25.45
2018-07-19T07:05:24.046Z,25.96
2018-07-19T07:06:24.047Z,26.49
2018-07-19T07:07:24.052Z,27.50
2018-07-19T07:08:24.058Z,28.13
2018-07-19T07:09:24.062Z,27.50
2018-07-19T07:10:24.074Z,27.74
2018-07-19T07:11:24.078Z,28.09
2018-07-19T07:12:24.086Z,28.67
2018-07-19T07:13:24.091Z,28.80
2018-07-19T07:14:24.093Z,27.80
2018-07-19T07:15:24.099Z,27.65
2018-07-19T07:16:24.111Z,27.25
2018-07-19T07:17:24.116Z,27.46
2018-07-19T07:18:24.118Z,27.16
2018-07-19T07:19:24.124Z,27.43
2018-07-19T07:20:24.131Z,27.45
2018-07-19T07:21:24.137Z,27.40
2018-07-19T07:22:24.148Z,27.18
2018-07-19T07:23:24.156Z,26.76
2018-07-19T07:24:24.162Z,26.81
2018-07-19T07:25:24.168Z,26.81
2018-07-19T07:26:24.171Z,26.71
2018-07-19T07:27:24.178Z,26.84
2018-07-19T07:28:24.264Z,26.81
2018-07-19T07:29:24.188Z,26.91
2018-07-19T07:30:24.199Z,27.08
2018-07-19T07:31:24.206Z,27.31
2018-07-19T07:32:24.208Z,26.90
2018-07-19T07:33:24.218Z,27.15
2018-07-19T07:34:24.224Z,27.43
2018-07-19T07:35:24.230Z,27.35
2018-07-19T07:36:24.234Z,27.42
2018-07-19T07:37:24.242Z,27.21
2018-07-19T07:38:24.243Z,27.65
2018-07-19T07:39:24.248Z,28.55
2018-07-19T07:40:24.254Z,29.11
2018-07-19T07:41:24.260Z,29.21
2018-07-19T07:42:24.271Z,28.77
2018-07-19T07:43:24.278Z,28.25
2018-07-19T07:44:24.285Z,28.01
2018-07-19T07:45:24.291Z,28.01
2018-07-19T07:46:24.295Z,27.59
2018-07-19T07:47:24.300Z,27.38
2018-07-19T07:48:24.315Z,27.33
2018-07-19T07:49:24.318Z,26.75
2018-07-19T07:50:24.320Z,26.38
2018-07-19T07:51:24.327Z,26.66
2018-07-19T07:52:24.334Z,26.56
2018-07-19T07:53:24.339Z,26.69
2018-07-19T07:54:24.352Z,26.66
2018-07-19T07:55:24.359Z,26.78
2018-07-19T07:56:24.366Z,26.94
2018-07-19T07:57:24.374Z,27.08
2018-07-19T07:58:24.374Z,27.18
2018-07-19T07:59:24.395Z,27.45
2018-07-19T08:00:24.438Z,27.93
2018-07-19T08:01:24.392Z,28.27
2018-07-19T08:02:24.403Z,28.32
2018-07-19T08:03:24.413Z,27.34
2018-07-19T08:04:24.412Z,27.31
2018-07-19T08:05:24.422Z,27.68
2018-07-19T08:06:24.431Z,28.11
2018-07-19T08:07:24.435Z,28.36
2018-07-19T08:08:24.442Z,28.48
2018-07-19T08:09:24.447Z,28.17
2018-07-19T08:10:24.448Z,28.24
2018-07-19T08:11:24.456Z,28.39
2018-07-19T08:12:24.461Z,28.55
2018-07-19T08:13:24.467Z,27.93
2018-07-19T08:14:24.479Z,27.80
2018-07-19T08:15:24.485Z,27.95
2018-07-19T08:16:24.490Z,28.23
2018-07-19T08:17:24.498Z,27.99
2018-07-19T08:18:24.497Z,28.15
2018-07-19T08:19:24.504Z,28.35
2018-07-19T08:20:24.518Z,28.48
2018-07-19T08:21:24.521Z,28.25
2018-07-19T08:22:24.523Z,27.84
2018-07-19T08:23:24.529Z,27.77
2018-07-19T08:24:24.536Z,27.71
2018-07-19T08:25:24.542Z,27.72
2018-07-19T08:26:24.564Z,27.63
2018-07-19T08:27:24.559Z,27.69
2018-07-19T08:28:24.565Z,28.62
2018-07-19T08:29:24.571Z,29.97
2018-07-19T08:30:24.572Z,30.36
2018-07-19T08:31:24.578Z,30.29
2018-07-19T08:32:24.597Z,30.61
2018-07-19T08:33:24.590Z,30.85
2018-07-19T08:34:24.607Z,31.27
2018-07-19T08:35:24.610Z,32.32
2018-07-19T08:36:24.614Z,32.46
2018-07-19T08:37:24.620Z,32.10
2018-07-19T08:38:24.632Z,31.22
2018-07-19T08:39:24.641Z,31.67
2018-07-19T08:40:24.651Z,31.99
2018-07-19T08:41:24.659Z,32.71
2018-07-19T08:42:24.666Z,33.07
2018-07-19T08:43:24.673Z,33.26
2018-07-19T08:44:24.682Z,32.27
2018-07-19T08:45:24.691Z,31.85
2018-07-19T08:46:24.708Z,31.71
2018-07-19T08:47:24.727Z,32.46
2018-07-19T08:48:24.728Z,32.29
2018-07-19T08:49:24.738Z,31.67
2018-07-19T08:50:24.745Z,32.07
2018-07-19T08:51:24.757Z,31.95
2018-07-19T08:52:24.773Z,31.88
2018-07-19T08:53:24.783Z,31.90
2018-07-19T08:54:24.789Z,32.17
2018-07-19T08:55:24.801Z,32.76
2018-07-19T08:56:24.847Z,34.14
2018-07-19T08:57:24.824Z,33.79
2018-07-19T08:58:24.840Z,34.24
2018-07-19T08:59:24.853Z,34.95
2018-07-19T09:00:24.863Z,34.95
2018-07-19T09:01:24.880Z,34.34
2018-07-19T09:02:24.930Z,33.89
2018-07-19T09:03:24.896Z,34.00
2018-07-19T09:04:24.911Z,34.14
2018-07-19T09:05:24.921Z,34.63
2018-07-19T09:06:24.941Z,34.09
2018-07-19T09:07:24.954Z,34.15
2018-07-19T09:08:24.965Z,34.71
2018-07-19T09:09:24.977Z,34.99
2018-07-19T09:10:24.995Z,34.75
2018-07-19T09:11:25.010Z,34.48
2018-07-19T09:12:25.024Z,34.72
2018-07-19T09:13:25.038Z,34.09
2018-07-19T09:14:25.060Z,34.63
2018-07-19T09:15:25.063Z,34.73
2018-07-19T09:16:25.077Z,35.56
2018-07-19T09:17:25.110Z,35.31
2018-07-19T09:18:25.109Z,34.95
2018-07-19T09:19:25.146Z,34.58
2018-07-19T09:20:25.145Z,34.38
2018-07-19T09:21:25.157Z,34.71
2018-07-19T09:22:25.167Z,35.25
2018-07-19T09:23:25.181Z,35.89
2018-07-19T09:24:25.201Z,35.47
2018-07-19T09:25:25.215Z,35.91
2018-07-19T09:26:25.226Z,36.37
2018-07-19T09:27:25.243Z,36.55
2018-07-19T09:28:25.257Z,36.21
2018-07-19T09:29:25.272Z,35.81
2018-07-19T09:30:25.292Z,34.94
2018-07-19T09:31:25.308Z,35.54
2018-07-19T09:32:25.323Z,35.17
2018-07-19T09:33:25.340Z,35.65
2018-07-19T09:34:25.352Z,36.48
2018-07-19T09:35:25.367Z,37.20
2018-07-19T09:36:25.384Z,37.30
2018-07-19T09:37:25.399Z,37.97
2018-07-19T09:38:25.508Z,37.60
2018-07-19T09:39:25.473Z,37.62
2018-07-19T09:40:25.448Z,37.62
2018-07-19T09:41:25.464Z,37.69
2018-07-19T09:42:25.485Z,38.16
2018-07-19T09:43:25.525Z,37.93
2018-07-19T09:44:25.520Z,37.97
2018-07-19T09:45:25.535Z,37.43
2018-07-19T09:46:25.548Z,37.04
2018-07-19T09:47:25.568Z,36.96
2018-07-19T09:48:25.581Z,36.46
2018-07-19T09:49:25.598Z,36.59
2018-07-19T09:50:25.619Z,35.99
2018-07-19T09:51:25.636Z,35.32
2018-07-19T09:52:25.655Z,35.43
2018-07-19T09:53:25.672Z,36.13
2018-07-19T09:54:25.682Z,35.25
2018-07-19T09:55:25.703Z,36.31
2018-07-19T09:56:25.722Z,35.87
2018-07-19T09:57:25.739Z,35.77
2018-07-19T09:58:25.750Z,35.76
2018-07-19T09:59:25.799Z,35.59
2018-07-19T10:00:25.791Z,35.49
2018-07-19T10:01:25.801Z,35.64
2018-07-19T10:02:25.822Z,35.43
2018-07-19T10:03:25.839Z,34.84
2018-07-19T10:04:25.859Z,33.70
2018-07-19T10:05:25.875Z,33.92
2018-07-19T10:06:25.891Z,34.78
2018-07-19T10:07:25.905Z,35.43
2018-07-19T10:08:25.920Z,35.93
2018-07-19T10:09:25.935Z,35.87
2018-07-19T10:10:25.958Z,35.89
2018-07-19T10:11:25.975Z,34.69
2018-07-19T10:12:25.986Z,34.15
2018-07-19T10:13:26.011Z,34.90
2018-07-19T10:14:26.024Z,35.34
2018-07-19T10:15:26.072Z,35.58
2018-07-19T10:16:26.059Z,35.84
2018-07-19T10:17:26.135Z,34.76
2018-07-19T10:18:26.087Z,35.59
2018-07-19T10:19:26.102Z,36.11
2018-07-19T10:20:26.118Z,35.99
2018-07-19T10:21:26.135Z,35.66
2018-07-19T10:22:26.157Z,36.52
2018-07-19T10:23:26.175Z,35.69
2018-07-19T10:24:26.208Z,34.03
2018-07-19T10:25:26.204Z,33.71
2018-07-19T10:26:26.218Z,33.82
2018-07-19T10:27:26.235Z,34.01
2018-07-19T10:28:26.256Z,33.89
2018-07-19T10:29:26.272Z,34.18
2018-07-19T10:30:26.284Z,34.38
2018-07-19T10:31:26.300Z,35.28
2018-07-19T10:32:26.392Z,35.65
2018-07-19T10:33:26.335Z,36.27
2018-07-19T10:34:26.446Z,35.76
2018-07-19T10:35:26.373Z,36.41
2018-07-19T10:36:26.389Z,35.65
2018-07-19T10:37:26.407Z,36.59
2018-07-19T10:38:26.465Z,36.46
2018-07-19T10:39:26.435Z,36.64
2018-07-19T10:40:26.455Z,35.65
2018-07-19T10:41:26.471Z,35.81
2018-07-19T10:42:26.491Z,35.13
2018-07-19T10:43:26.506Z,35.27
2018-07-19T10:44:26.525Z,34.67
2018-07-19T10:45:26.540Z,34.31
2018-07-19T10:46:26.557Z,34.24
2018-07-19T10:47:26.573Z,33.44
2018-07-19T10:48:26.592Z,33.84
2018-07-19T10:49:26.607Z,33.56
2018-07-19T10:50:26.619Z,34.14
2018-07-19T10:51:26.635Z,34.88
2018-07-19T10:52:26.652Z,34.91
2018-07-19T10:53:26.668Z,34.58
2018-07-19T10:54:26.690Z,34.23
2018-07-19T10:55:26.707Z,33.99
2018-07-19T10:56:26.723Z,33.87
2018-07-19T10:57:26.784Z,34.38
2018-07-19T10:58:26.752Z,34.93
2018-07-19T10:59:26.766Z,35.55
2018-07-19T11:00:26.786Z,35.64
2018-07-19T11:01:26.803Z,35.13
2018-07-19T11:02:26.814Z,35.22
2018-07-19T11:03:26.830Z,34.27
2018-07-19T11:04:26.850Z,34.56
2018-07-19T11:05:26.863Z,34.75
2018-07-19T11:06:26.883Z,35.62
2018-07-19T11:07:26.900Z,35.43
2018-07-19T11:08:26.914Z,36.13
2018-07-19T11:09:26.984Z,35.96
2018-07-19T11:10:26.945Z,36.05
2018-07-19T11:11:26.959Z,36.48
2018-07-19T11:12:26.976Z,36.69
2018-07-19T11:13:26.991Z,36.43
2018-07-19T11:14:27.016Z,35.52
2018-07-19T11:15:27.030Z,34.09
2018-07-19T11:16:27.059Z,33.84
2018-07-19T11:17:27.056Z,33.63
2018-07-19T11:18:27.078Z,32.72
2018-07-19T11:19:27.094Z,32.56
2018-07-19T11:20:27.110Z,33.40
2018-07-19T11:21:27.123Z,34.15
2018-07-19T11:22:27.135Z,33.99
2018-07-19T11:23:27.149Z,33.74
2018-07-19T11:24:27.164Z,33.62
2018-07-19T11:25:27.178Z,33.34
2018-07-19T11:26:27.198Z,33.43
2018-07-19T11:27:27.211Z,33.71
2018-07-19T11:28:27.247Z,33.65
2018-07-19T11:29:27.238Z,33.11
2018-07-19T11:30:27.246Z,32.80
2018-07-19T11:31:27.260Z,33.14
2018-07-19T11:32:27.278Z,32.73
2018-07-19T11:33:27.289Z,32.76
2018-07-19T11:34:27.296Z,31.94
2018-07-19T11:35:27.309Z,31.46
2018-07-19T11:36:27.321Z,31.53
2018-07-19T11:37:27.331Z,31.68
2018-07-19T11:38:27.349Z,31.19
2018-07-19T11:39:27.382Z,31.32
2018-07-19T11:40:27.368Z,31.56
2018-07-19T11:41:27.384Z,31.13
2018-07-19T11:42:27.384Z,31.16
2018-07-19T11:43:27.394Z,31.13
2018-07-19T11:44:27.405Z,30.91
2018-07-19T11:45:27.422Z,31.18
2018-07-19T11:46:27.427Z,31.23
2018-07-19T11:47:27.437Z,31.56
2018-07-19T11:48:27.442Z,31.88
2018-07-19T11:49:27.450Z,31.56
2018-07-19T11:50:27.467Z,31.85
2018-07-19T11:51:27.471Z,32.02
2018-07-19T11:52:27.480Z,31.56
2018-07-19T11:53:27.487Z,31.15
2018-07-19T11:54:27.492Z,30.91
2018-07-19T11:55:27.499Z,30.75
2018-07-19T11:56:27.508Z,30.94
2018-07-19T11:57:27.518Z,31.16
2018-07-19T11:58:27.528Z,31.47
2018-07-19T11:59:27.535Z,31.64
2018-07-19T12:00:27.544Z,31.68
2018-07-19T12:01:27.572Z,31.50
2018-07-19T12:02:27.557Z,31.53
2018-07-19T12:03:27.565Z,31.16
2018-07-19T12:04:27.576Z,30.97
2018-07-19T12:05:27.581Z,30.56
2018-07-19T12:06:27.584Z,30.78
2018-07-19T12:07:27.593Z,30.60
2018-07-19T12:08:27.600Z,30.78
2018-07-19T12:09:27.606Z,30.79
2018-07-19T12:10:27.618Z,30.51
2018-07-19T12:11:27.626Z,30.82
2018-07-19T12:12:27.634Z,30.78
2018-07-19T12:13:27.641Z,30.64
2018-07-19T12:14:27.643Z,30.54
2018-07-19T12:15:27.651Z,30.44
2018-07-19T12:16:27.656Z,30.36
2018-07-19T12:17:27.663Z,30.19
2018-07-19T12:18:27.674Z,30.13
2018-07-19T12:19:27.683Z,30.11
2018-07-19T12:20:27.684Z,29.97
2018-07-19T12:21:27.691Z,30.03
2018-07-19T12:22:27.702Z,30.01
2018-07-19T12:23:27.709Z,30.23
2018-07-19T12:24:27.717Z,30.25
2018-07-19T12:25:27.724Z,30.48
2018-07-19T12:26:27.725Z,30.61
2018-07-19T12:27:27.732Z,30.37
2018-07-19T12:28:27.742Z,30.23
2018-07-19T12:29:27.745Z,30.44
2018-07-19T12:30:27.757Z,30.36
2018-07-19T12:31:27.763Z,30.16
2018-07-19T12:32:27.770Z,29.78
2018-07-19T12:33:27.777Z,29.94
2018-07-19T12:34:27.782Z,30.03
2018-07-19T12:35:27.788Z,30.03
2018-07-19T12:36:27.796Z,29.88
2018-07-19T12:37:27.803Z,29.89
2018-07-19T12:38:27.805Z,29.89
2018-07-19T12:39:27.811Z,29.81
2018-07-19T12:40:27.820Z,29.82
2018-07-19T12:41:27.824Z,29.79
2018-07-19T12:42:27.834Z,29.73
2018-07-19T12:43:27.842Z,29.79
2018-07-19T12:44:27.847Z,29.85
2018-07-19T12:45:27.855Z,29.97
2018-07-19T12:46:27.855Z,30.16
2018-07-19T12:47:27.862Z,30.10
2018-07-19T12:48:27.867Z,29.99
2018-07-19T12:49:27.873Z,30.37
2018-07-19T12:50:27.884Z,30.51
2018-07-19T12:51:27.891Z,30.68
2018-07-19T12:52:27.893Z,30.82